sensor_id;sensor_type;location;lat;lon;timestamp;P1;durP1;ratioP1;P2;durP2;ratioP2
12228;SDS011;6177;52.402;9.800;2023-03-01T00:01:34;10.03;;;8.73;;
12228;SDS011;6177;52.402;9.800;2023-03-01T00:04:25;10.00;;;9.07;;
12228;SDS011;6177;52.402;9.800;2023-03-01T00:07:16;9.90;;;9.00;;
12228;SDS011;6177;52.402;9.800;2023-03-01T00:10:07;9.43;;;8.53;;
12228;SDS011;6177;52.402;9.800;2023-03-01T00:12:58;9.97;;;8.87;;
12228;SDS011;6177;52.402;9.800;2023-03-01T00:15:50;10.50;;;9.53;;
12228;SDS011;6177;52.402;9.800;2023-03-01T00:18:41;10.20;;;9.40;;
12228;SDS011;6177;52.402;9.800;2023-03-01T00:21:31;8.80;;;8.03;;
12228;SDS011;6177;52.402;9.800;2023-03-01T00:24:23;10.13;;;9.27;;
12228;SDS011;6177;52.402;9.800;2023-03-01T00:27:14;9.73;;;8.53;;
12228;SDS011;6177;52.402;9.800;2023-03-01T00:30:05;10.00;;;9.10;;
12228;SDS011;6177;52.402;9.800;2023-03-01T00:32:55;10.17;;;9.27;;
12228;SDS011;6177;52.402;9.800;2023-03-01T00:35:46;10.07;;;9.07;;
12228;SDS011;6177;52.402;9.800;2023-03-01T00:38:42;11.17;;;9.73;;
12228;SDS011;6177;52.402;9.800;2023-03-01T00:41:34;9.37;;;8.50;;
12228;SDS011;6177;52.402;9.800;2023-03-01T00:44:24;9.63;;;8.80;;
12228;SDS011;6177;52.402;9.800;2023-03-01T00:47:16;10.73;;;9.73;;
12228;SDS011;6177;52.402;9.800;2023-03-01T00:50:07;10.03;;;9.03;;
12228;SDS011;6177;52.402;9.800;2023-03-01T00:52:58;9.77;;;8.83;;
12228;SDS011;6177;52.402;9.800;2023-03-01T00:55:49;10.20;;;9.30;;
12228;SDS011;6177;52.402;9.800;2023-03-01T00:58:39;10.17;;;9.27;;
12228;SDS011;6177;52.402;9.800;2023-03-01T01:01:31;10.07;;;9.03;;
12228;SDS011;6177;52.402;9.800;2023-03-01T01:04:21;10.23;;;9.33;;
12228;SDS011;6177;52.402;9.800;2023-03-01T01:07:13;9.60;;;8.80;;
12228;SDS011;6177;52.402;9.800;2023-03-01T01:10:04;9.43;;;8.53;;
12228;SDS011;6177;52.402;9.800;2023-03-01T01:12:55;10.13;;;9.23;;
12228;SDS011;6177;52.402;9.800;2023-03-01T01:15:46;10.20;;;9.23;;
12228;SDS011;6177;52.402;9.800;2023-03-01T01:18:38;10.57;;;9.47;;
12228;SDS011;6177;52.402;9.800;2023-03-01T01:21:29;10.27;;;9.37;;
12228;SDS011;6177;52.402;9.800;2023-03-01T01:24:20;10.07;;;9.00;;
12228;SDS011;6177;52.402;9.800;2023-03-01T01:27:12;10.47;;;9.60;;
12228;SDS011;6177;52.402;9.800;2023-03-01T01:30:03;10.83;;;9.47;;
12228;SDS011;6177;52.402;9.800;2023-03-01T01:32:55;9.97;;;8.97;;
12228;SDS011;6177;52.402;9.800;2023-03-01T01:35:46;9.80;;;8.83;;
12228;SDS011;6177;52.402;9.800;2023-03-01T01:38:37;9.67;;;8.77;;
12228;SDS011;6177;52.402;9.800;2023-03-01T01:41:29;9.90;;;9.00;;
12228;SDS011;6177;52.402;9.800;2023-03-01T01:44:21;9.50;;;8.63;;
12228;SDS011;6177;52.402;9.800;2023-03-01T01:47:14;10.60;;;9.67;;
12228;SDS011;6177;52.402;9.800;2023-03-01T01:50:08;10.50;;;9.53;;
12228;SDS011;6177;52.402;9.800;2023-03-01T01:53:05;9.80;;;8.90;;
12228;SDS011;6177;52.402;9.800;2023-03-01T01:55:59;10.43;;;9.43;;
12228;SDS011;6177;52.402;9.800;2023-03-01T01:58:51;9.63;;;8.83;;
12228;SDS011;6177;52.402;9.800;2023-03-01T02:01:43;9.40;;;8.50;;
12228;SDS011;6177;52.402;9.800;2023-03-01T02:04:33;9.37;;;8.57;;
12228;SDS011;6177;52.402;9.800;2023-03-01T02:07:24;9.60;;;8.70;;
12228;SDS011;6177;52.402;9.800;2023-03-01T02:10:16;10.63;;;9.67;;
12228;SDS011;6177;52.402;9.800;2023-03-01T02:13:07;9.50;;;8.63;;
12228;SDS011;6177;52.402;9.800;2023-03-01T02:15:58;9.00;;;8.30;;
12228;SDS011;6177;52.402;9.800;2023-03-01T02:18:48;10.33;;;9.33;;
12228;SDS011;6177;52.402;9.800;2023-03-01T02:21:43;9.90;;;9.10;;
12228;SDS011;6177;52.402;9.800;2023-03-01T02:25:26;10.03;;;9.13;;
12228;SDS011;6177;52.402;9.800;2023-03-01T02:28:02;9.70;;;8.90;;
12228;SDS011;6177;52.402;9.800;2023-03-01T02:30:59;9.50;;;8.73;;
12228;SDS011;6177;52.402;9.800;2023-03-01T02:34:08;9.43;;;8.63;;
12228;SDS011;6177;52.402;9.800;2023-03-01T02:37:05;9.73;;;8.90;;
12228;SDS011;6177;52.402;9.800;2023-03-01T02:40:03;10.20;;;9.30;;
12228;SDS011;6177;52.402;9.800;2023-03-01T02:42:56;9.53;;;8.53;;
12228;SDS011;6177;52.402;9.800;2023-03-01T02:45:49;10.00;;;9.23;;
12228;SDS011;6177;52.402;9.800;2023-03-01T02:49:41;9.67;;;8.90;;
12228;SDS011;6177;52.402;9.800;2023-03-01T02:55:25;10.17;;;9.27;;
12228;SDS011;6177;52.402;9.800;2023-03-01T02:58:16;11.17;;;10.00;;
12228;SDS011;6177;52.402;9.800;2023-03-01T03:01:07;10.70;;;9.70;;
12228;SDS011;6177;52.402;9.800;2023-03-01T03:04:00;9.80;;;8.97;;
12228;SDS011;6177;52.402;9.800;2023-03-01T03:06:50;11.50;;;10.40;;
12228;SDS011;6177;52.402;9.800;2023-03-01T03:09:41;11.27;;;10.17;;
12228;SDS011;6177;52.402;9.800;2023-03-01T03:12:33;10.57;;;9.53;;
12228;SDS011;6177;52.402;9.800;2023-03-01T03:15:24;11.27;;;10.17;;
12228;SDS011;6177;52.402;9.800;2023-03-01T03:18:16;10.60;;;9.50;;
12228;SDS011;6177;52.402;9.800;2023-03-01T03:21:08;10.37;;;9.37;;
12228;SDS011;6177;52.402;9.800;2023-03-01T03:24:02;10.53;;;9.63;;
12228;SDS011;6177;52.402;9.800;2023-03-01T03:26:53;11.80;;;10.63;;
12228;SDS011;6177;52.402;9.800;2023-03-01T03:29:45;10.67;;;9.77;;
12228;SDS011;6177;52.402;9.800;2023-03-01T03:32:36;11.43;;;10.40;;
12228;SDS011;6177;52.402;9.800;2023-03-01T03:35:41;11.97;;;9.53;;
12228;SDS011;6177;52.402;9.800;2023-03-01T03:38:35;11.40;;;10.30;;
12228;SDS011;6177;52.402;9.800;2023-03-01T03:41:27;11.00;;;9.83;;
12228;SDS011;6177;52.402;9.800;2023-03-01T03:44:18;11.27;;;10.27;;
12228;SDS011;6177;52.402;9.800;2023-03-01T03:47:09;10.47;;;9.60;;
12228;SDS011;6177;52.402;9.800;2023-03-01T03:50:00;12.07;;;10.93;;
12228;SDS011;6177;52.402;9.800;2023-03-01T03:52:51;12.20;;;10.10;;
12228;SDS011;6177;52.402;9.800;2023-03-01T03:55:42;11.23;;;10.13;;
12228;SDS011;6177;52.402;9.800;2023-03-01T03:58:35;10.57;;;9.47;;
12228;SDS011;6177;52.402;9.800;2023-03-01T04:01:25;11.13;;;10.07;;
12228;SDS011;6177;52.402;9.800;2023-03-01T04:04:17;10.80;;;9.80;;
12228;SDS011;6177;52.402;9.800;2023-03-01T04:07:09;10.80;;;9.80;;
12228;SDS011;6177;52.402;9.800;2023-03-01T04:10:00;11.00;;;10.03;;
12228;SDS011;6177;52.402;9.800;2023-03-01T04:12:52;11.10;;;10.10;;
12228;SDS011;6177;52.402;9.800;2023-03-01T04:15:43;10.63;;;9.63;;
12228;SDS011;6177;52.402;9.800;2023-03-01T04:18:33;11.00;;;9.90;;
12228;SDS011;6177;52.402;9.800;2023-03-01T04:21:24;10.07;;;9.27;;
12228;SDS011;6177;52.402;9.800;2023-03-01T04:24:15;11.70;;;10.50;;
12228;SDS011;6177;52.402;9.800;2023-03-01T04:27:06;11.57;;;10.37;;
12228;SDS011;6177;52.402;9.800;2023-03-01T04:29:57;10.50;;;9.60;;
12228;SDS011;6177;52.402;9.800;2023-03-01T04:32:48;9.97;;;9.07;;
12228;SDS011;6177;52.402;9.800;2023-03-01T04:35:40;11.50;;;10.47;;
12228;SDS011;6177;52.402;9.800;2023-03-01T04:38:31;11.77;;;10.50;;
12228;SDS011;6177;52.402;9.800;2023-03-01T04:41:23;11.70;;;10.27;;
12228;SDS011;6177;52.402;9.800;2023-03-01T04:44:15;13.03;;;11.73;;
12228;SDS011;6177;52.402;9.800;2023-03-01T04:47:06;11.97;;;10.70;;
12228;SDS011;6177;52.402;9.800;2023-03-01T04:49:57;12.13;;;10.93;;
12228;SDS011;6177;52.402;9.800;2023-03-01T04:52:48;12.50;;;11.23;;
12228;SDS011;6177;52.402;9.800;2023-03-01T04:55:39;12.27;;;11.07;;
12228;SDS011;6177;52.402;9.800;2023-03-01T04:58:30;12.30;;;11.10;;
12228;SDS011;6177;52.402;9.800;2023-03-01T05:01:21;11.87;;;10.77;;
12228;SDS011;6177;52.402;9.800;2023-03-01T05:04:12;11.90;;;10.80;;
12228;SDS011;6177;52.402;9.800;2023-03-01T05:07:04;12.10;;;11.00;;
12228;SDS011;6177;52.402;9.800;2023-03-01T05:09:55;12.13;;;11.00;;
12228;SDS011;6177;52.402;9.800;2023-03-01T05:12:45;11.40;;;10.30;;
12228;SDS011;6177;52.402;9.800;2023-03-01T05:15:36;11.43;;;10.17;;
12228;SDS011;6177;52.402;9.800;2023-03-01T05:18:31;12.20;;;11.00;;
12228;SDS011;6177;52.402;9.800;2023-03-01T05:21:22;12.80;;;11.50;;
12228;SDS011;6177;52.402;9.800;2023-03-01T05:24:14;11.47;;;10.27;;
12228;SDS011;6177;52.402;9.800;2023-03-01T05:27:05;11.97;;;10.73;;
12228;SDS011;6177;52.402;9.800;2023-03-01T05:29:56;12.10;;;11.10;;
12228;SDS011;6177;52.402;9.800;2023-03-01T05:32:48;11.87;;;10.67;;
12228;SDS011;6177;52.402;9.800;2023-03-01T05:35:40;13.23;;;11.93;;
12228;SDS011;6177;52.402;9.800;2023-03-01T05:38:32;11.93;;;10.83;;
12228;SDS011;6177;52.402;9.800;2023-03-01T05:41:23;11.43;;;10.40;;
12228;SDS011;6177;52.402;9.800;2023-03-01T05:44:14;11.60;;;10.50;;
12228;SDS011;6177;52.402;9.800;2023-03-01T05:47:05;12.07;;;10.97;;
12228;SDS011;6177;52.402;9.800;2023-03-01T05:49:56;12.50;;;11.20;;
12228;SDS011;6177;52.402;9.800;2023-03-01T05:52:48;13.17;;;11.77;;
12228;SDS011;6177;52.402;9.800;2023-03-01T05:55:41;12.37;;;11.17;;
12228;SDS011;6177;52.402;9.800;2023-03-01T05:58:33;11.90;;;10.80;;
12228;SDS011;6177;52.402;9.800;2023-03-01T06:01:23;12.03;;;10.83;;
12228;SDS011;6177;52.402;9.800;2023-03-01T06:04:15;11.63;;;10.37;;
12228;SDS011;6177;52.402;9.800;2023-03-01T06:07:06;11.83;;;10.63;;
12228;SDS011;6177;52.402;9.800;2023-03-01T06:09:57;12.97;;;11.67;;
12228;SDS011;6177;52.402;9.800;2023-03-01T06:12:48;12.67;;;11.57;;
12228;SDS011;6177;52.402;9.800;2023-03-01T06:15:39;12.80;;;11.50;;
12228;SDS011;6177;52.402;9.800;2023-03-01T06:18:30;11.83;;;10.70;;
12228;SDS011;6177;52.402;9.800;2023-03-01T06:21:21;11.80;;;10.77;;
12228;SDS011;6177;52.402;9.800;2023-03-01T06:24:12;12.30;;;11.03;;
12228;SDS011;6177;52.402;9.800;2023-03-01T06:27:02;11.87;;;10.70;;
12228;SDS011;6177;52.402;9.800;2023-03-01T06:29:54;18.00;;;16.07;;
12228;SDS011;6177;52.402;9.800;2023-03-01T06:32:45;13.57;;;12.17;;
12228;SDS011;6177;52.402;9.800;2023-03-01T06:35:37;12.70;;;11.43;;
12228;SDS011;6177;52.402;9.800;2023-03-01T06:38:28;12.00;;;10.80;;
12228;SDS011;6177;52.402;9.800;2023-03-01T06:41:19;12.40;;;11.23;;
12228;SDS011;6177;52.402;9.800;2023-03-01T06:44:10;14.73;;;11.83;;
12228;SDS011;6177;52.402;9.800;2023-03-01T06:47:00;12.97;;;11.70;;
12228;SDS011;6177;52.402;9.800;2023-03-01T06:49:52;13.17;;;11.93;;
12228;SDS011;6177;52.402;9.800;2023-03-01T06:52:43;12.67;;;10.90;;
12228;SDS011;6177;52.402;9.800;2023-03-01T06:55:35;12.50;;;11.20;;
12228;SDS011;6177;52.402;9.800;2023-03-01T06:58:26;11.13;;;10.10;;
12228;SDS011;6177;52.402;9.800;2023-03-01T07:01:17;12.10;;;10.87;;
12228;SDS011;6177;52.402;9.800;2023-03-01T07:04:08;12.10;;;10.97;;
12228;SDS011;6177;52.402;9.800;2023-03-01T07:06:59;12.40;;;10.97;;
12228;SDS011;6177;52.402;9.800;2023-03-01T07:09:50;13.53;;;12.13;;
12228;SDS011;6177;52.402;9.800;2023-03-01T07:12:40;12.67;;;11.07;;
12228;SDS011;6177;52.402;9.800;2023-03-01T07:15:31;11.10;;;9.57;;
12228;SDS011;6177;52.402;9.800;2023-03-01T07:18:23;12.00;;;10.00;;
12228;SDS011;6177;52.402;9.800;2023-03-01T07:21:14;11.73;;;9.80;;
12228;SDS011;6177;52.402;9.800;2023-03-01T07:24:08;11.73;;;10.17;;
12228;SDS011;6177;52.402;9.800;2023-03-01T07:26:59;14.70;;;10.63;;
12228;SDS011;6177;52.402;9.800;2023-03-01T07:29:49;11.67;;;10.47;;
12228;SDS011;6177;52.402;9.800;2023-03-01T07:32:40;11.47;;;10.37;;
12228;SDS011;6177;52.402;9.800;2023-03-01T07:35:31;11.57;;;10.37;;
12228;SDS011;6177;52.402;9.800;2023-03-01T07:38:24;11.40;;;9.40;;
12228;SDS011;6177;52.402;9.800;2023-03-01T07:41:14;11.13;;;9.83;;
12228;SDS011;6177;52.402;9.800;2023-03-01T07:44:05;15.07;;;10.83;;
12228;SDS011;6177;52.402;9.800;2023-03-01T07:46:56;12.70;;;10.13;;
12228;SDS011;6177;52.402;9.800;2023-03-01T07:49:48;32.70;;;25.57;;
12228;SDS011;6177;52.402;9.800;2023-03-01T07:52:39;22.67;;;14.33;;
12228;SDS011;6177;52.402;9.800;2023-03-01T07:55:29;13.43;;;12.03;;
12228;SDS011;6177;52.402;9.800;2023-03-01T07:58:19;15.80;;;11.43;;
12228;SDS011;6177;52.402;9.800;2023-03-01T08:01:11;11.90;;;10.37;;
12228;SDS011;6177;52.402;9.800;2023-03-01T08:04:04;11.33;;;10.13;;
12228;SDS011;6177;52.402;9.800;2023-03-01T08:06:57;11.23;;;10.33;;
12228;SDS011;6177;52.402;9.800;2023-03-01T08:09:48;10.77;;;9.67;;
12228;SDS011;6177;52.402;9.800;2023-03-01T08:12:39;10.20;;;9.00;;
12228;SDS011;6177;52.402;9.800;2023-03-01T08:15:30;9.87;;;8.97;;
12228;SDS011;6177;52.402;9.800;2023-03-01T08:18:21;10.70;;;9.17;;
12228;SDS011;6177;52.402;9.800;2023-03-01T08:21:13;9.23;;;8.27;;
12228;SDS011;6177;52.402;9.800;2023-03-01T08:24:05;8.57;;;7.77;;
12228;SDS011;6177;52.402;9.800;2023-03-01T08:26:57;9.23;;;8.33;;
12228;SDS011;6177;52.402;9.800;2023-03-01T08:29:48;8.50;;;7.80;;
12228;SDS011;6177;52.402;9.800;2023-03-01T08:32:39;9.07;;;8.10;;
12228;SDS011;6177;52.402;9.800;2023-03-01T08:35:30;8.03;;;7.33;;
12228;SDS011;6177;52.402;9.800;2023-03-01T08:38:21;8.93;;;7.50;;
12228;SDS011;6177;52.402;9.800;2023-03-01T08:41:12;9.10;;;7.20;;
12228;SDS011;6177;52.402;9.800;2023-03-01T08:44:03;8.20;;;7.30;;
12228;SDS011;6177;52.402;9.800;2023-03-01T08:46:54;7.37;;;6.63;;
12228;SDS011;6177;52.402;9.800;2023-03-01T08:49:46;8.07;;;7.27;;
12228;SDS011;6177;52.402;9.800;2023-03-01T08:52:37;8.30;;;6.80;;
12228;SDS011;6177;52.402;9.800;2023-03-01T08:55:28;8.40;;;7.10;;
12228;SDS011;6177;52.402;9.800;2023-03-01T08:58:19;8.37;;;7.43;;
12228;SDS011;6177;52.402;9.800;2023-03-01T09:01:10;7.57;;;6.83;;
12228;SDS011;6177;52.402;9.800;2023-03-01T09:04:02;6.80;;;6.20;;
12228;SDS011;6177;52.402;9.800;2023-03-01T09:06:54;7.77;;;6.50;;
12228;SDS011;6177;52.402;9.800;2023-03-01T09:09:45;7.23;;;6.43;;
12228;SDS011;6177;52.402;9.800;2023-03-01T09:12:36;7.77;;;6.97;;
12228;SDS011;6177;52.402;9.800;2023-03-01T09:15:27;6.70;;;6.10;;
12228;SDS011;6177;52.402;9.800;2023-03-01T09:18:18;11.20;;;6.60;;
12228;SDS011;6177;52.402;9.800;2023-03-01T09:21:10;7.07;;;6.37;;
12228;SDS011;6177;52.402;9.800;2023-03-01T09:24:03;5.23;;;4.83;;
12228;SDS011;6177;52.402;9.800;2023-03-01T09:26:54;5.27;;;4.80;;
12228;SDS011;6177;52.402;9.800;2023-03-01T09:29:46;5.53;;;4.80;;
12228;SDS011;6177;52.402;9.800;2023-03-01T09:32:37;4.90;;;4.50;;
12228;SDS011;6177;52.402;9.800;2023-03-01T09:35:32;6.57;;;5.20;;
12228;SDS011;6177;52.402;9.800;2023-03-01T09:38:23;6.03;;;4.67;;
12228;SDS011;6177;52.402;9.800;2023-03-01T09:47:24;4.63;;;4.33;;
12228;SDS011;6177;52.402;9.800;2023-03-01T09:50:17;5.00;;;4.63;;
12228;SDS011;6177;52.402;9.800;2023-03-01T09:53:16;4.43;;;4.03;;
12228;SDS011;6177;52.402;9.800;2023-03-01T10:02:38;5.00;;;4.70;;
12228;SDS011;6177;52.402;9.800;2023-03-01T10:08:58;5.00;;;4.50;;
12228;SDS011;6177;52.402;9.800;2023-03-01T10:11:53;5.33;;;4.93;;
12228;SDS011;6177;52.402;9.800;2023-03-01T10:17:50;5.70;;;5.30;;
12228;SDS011;6177;52.402;9.800;2023-03-01T10:20:47;6.30;;;5.80;;
12228;SDS011;6177;52.402;9.800;2023-03-01T10:23:42;5.70;;;5.10;;
12228;SDS011;6177;52.402;9.800;2023-03-01T10:26:47;5.90;;;5.50;;
12228;SDS011;6177;52.402;9.800;2023-03-01T10:29:48;5.23;;;4.83;;
12228;SDS011;6177;52.402;9.800;2023-03-01T10:33:00;5.13;;;4.73;;
12228;SDS011;6177;52.402;9.800;2023-03-01T10:35:51;23.53;;;21.10;;
12228;SDS011;6177;52.402;9.800;2023-03-01T10:38:49;4.93;;;4.63;;
12228;SDS011;6177;52.402;9.800;2023-03-01T10:42:03;4.67;;;4.30;;
12228;SDS011;6177;52.402;9.800;2023-03-01T10:44:55;4.53;;;4.23;;
12228;SDS011;6177;52.402;9.800;2023-03-01T10:47:46;5.07;;;4.57;;
12228;SDS011;6177;52.402;9.800;2023-03-01T10:50:37;4.27;;;3.90;;
12228;SDS011;6177;52.402;9.800;2023-03-01T10:53:34;4.60;;;4.20;;
12228;SDS011;6177;52.402;9.800;2023-03-01T10:56:27;4.63;;;4.23;;
12228;SDS011;6177;52.402;9.800;2023-03-01T10:59:22;4.30;;;4.00;;
12228;SDS011;6177;52.402;9.800;2023-03-01T11:02:25;3.80;;;3.60;;
12228;SDS011;6177;52.402;9.800;2023-03-01T11:05:20;4.17;;;3.87;;
12228;SDS011;6177;52.402;9.800;2023-03-01T11:08:14;4.53;;;4.13;;
12228;SDS011;6177;52.402;9.800;2023-03-01T11:11:19;3.93;;;3.63;;
12228;SDS011;6177;52.402;9.800;2023-03-01T11:14:16;3.90;;;3.60;;
12228;SDS011;6177;52.402;9.800;2023-03-01T11:17:15;4.13;;;3.40;;
12228;SDS011;6177;52.402;9.800;2023-03-01T11:23:11;2.93;;;2.73;;
12228;SDS011;6177;52.402;9.800;2023-03-01T11:26:04;2.73;;;2.63;;
12228;SDS011;6177;52.402;9.800;2023-03-01T11:28:56;3.17;;;2.97;;
12228;SDS011;6177;52.402;9.800;2023-03-01T11:31:49;5.00;;;4.57;;
12228;SDS011;6177;52.402;9.800;2023-03-01T11:34:47;3.20;;;3.00;;
12228;SDS011;6177;52.402;9.800;2023-03-01T11:41:00;3.20;;;2.90;;
12228;SDS011;6177;52.402;9.800;2023-03-01T11:43:56;2.83;;;2.63;;
12228;SDS011;6177;52.402;9.800;2023-03-01T11:46:57;2.90;;;2.70;;
12228;SDS011;6177;52.402;9.800;2023-03-01T11:56:34;2.67;;;2.47;;
12228;SDS011;6177;52.402;9.800;2023-03-01T12:09:17;2.50;;;2.40;;
12228;SDS011;6177;52.402;9.800;2023-03-01T12:18:55;3.10;;;2.90;;
12228;SDS011;6177;52.402;9.800;2023-03-01T12:28:18;2.67;;;2.47;;
12228;SDS011;6177;52.402;9.800;2023-03-01T12:31:33;3.00;;;2.90;;
12228;SDS011;6177;52.402;9.800;2023-03-01T12:37:47;3.00;;;2.80;;
12228;SDS011;6177;52.402;9.800;2023-03-01T12:51:23;3.13;;;2.93;;
12228;SDS011;6177;52.402;9.800;2023-03-01T12:54:16;3.70;;;3.40;;
12228;SDS011;6177;52.402;9.800;2023-03-01T12:57:18;3.30;;;3.10;;
12228;SDS011;6177;52.402;9.800;2023-03-01T13:00:23;3.03;;;2.83;;
12228;SDS011;6177;52.402;9.800;2023-03-01T13:12:46;4.20;;;4.00;;
12228;SDS011;6177;52.402;9.800;2023-03-01T13:15:40;3.73;;;3.53;;
12228;SDS011;6177;52.402;9.800;2023-03-01T13:18:31;3.63;;;3.47;;
12228;SDS011;6177;52.402;9.800;2023-03-01T13:21:30;3.70;;;3.50;;
12228;SDS011;6177;52.402;9.800;2023-03-01T13:24:28;3.90;;;3.60;;
12228;SDS011;6177;52.402;9.800;2023-03-01T13:27:32;3.70;;;3.50;;
12228;SDS011;6177;52.402;9.800;2023-03-01T13:39:29;3.57;;;3.37;;
12228;SDS011;6177;52.402;9.800;2023-03-01T13:45:24;2.63;;;2.53;;
12228;SDS011;6177;52.402;9.800;2023-03-01T13:48:31;3.20;;;3.00;;
12228;SDS011;6177;52.402;9.800;2023-03-01T13:51:26;3.23;;;3.03;;
12228;SDS011;6177;52.402;9.800;2023-03-01T13:54:22;3.00;;;2.90;;
12228;SDS011;6177;52.402;9.800;2023-03-01T13:57:21;2.45;;;2.35;;
12228;SDS011;6177;52.402;9.800;2023-03-01T14:00:34;2.85;;;2.65;;
12228;SDS011;6177;52.402;9.800;2023-03-01T14:03:30;2.38;;;2.28;;
12228;SDS011;6177;52.402;9.800;2023-03-01T14:06:24;2.97;;;2.78;;
12228;SDS011;6177;52.402;9.800;2023-03-01T14:09:26;2.88;;;2.67;;
12228;SDS011;6177;52.402;9.800;2023-03-01T14:15:29;3.05;;;2.85;;
12228;SDS011;6177;52.402;9.800;2023-03-01T14:18:28;4.95;;;2.80;;
12228;SDS011;6177;52.402;9.800;2023-03-01T14:21:38;3.15;;;3.05;;
12228;SDS011;6177;52.402;9.800;2023-03-01T14:24:28;2.97;;;2.78;;
12228;SDS011;6177;52.402;9.800;2023-03-01T14:27:19;2.53;;;2.33;;
12228;SDS011;6177;52.402;9.800;2023-03-01T14:30:21;2.47;;;2.28;;
12228;SDS011;6177;52.402;9.800;2023-03-01T14:33:19;2.78;;;2.58;;
12228;SDS011;6177;52.402;9.800;2023-03-01T14:36:13;2.53;;;2.35;;
12228;SDS011;6177;52.402;9.800;2023-03-01T14:39:15;2.70;;;2.60;;
12228;SDS011;6177;52.402;9.800;2023-03-01T14:42:11;2.40;;;2.30;;
12228;SDS011;6177;52.402;9.800;2023-03-01T14:45:02;2.47;;;2.28;;
12228;SDS011;6177;52.402;9.800;2023-03-01T14:47:54;2.30;;;2.30;;
12228;SDS011;6177;52.402;9.800;2023-03-01T14:50:46;2.17;;;2.17;;
12228;SDS011;6177;52.402;9.800;2023-03-01T14:53:37;2.58;;;2.47;;
12228;SDS011;6177;52.402;9.800;2023-03-01T14:56:28;2.33;;;2.22;;
12228;SDS011;6177;52.402;9.800;2023-03-01T14:59:33;2.33;;;2.22;;
12228;SDS011;6177;52.402;9.800;2023-03-01T15:02:25;2.30;;;2.20;;
12228;SDS011;6177;52.402;9.800;2023-03-01T15:05:18;2.78;;;2.65;;
12228;SDS011;6177;52.402;9.800;2023-03-01T15:08:20;2.97;;;2.65;;
12228;SDS011;6177;52.402;9.800;2023-03-01T15:14:24;2.53;;;2.40;;
12228;SDS011;6177;52.402;9.800;2023-03-01T15:17:19;3.08;;;2.88;;
12228;SDS011;6177;52.402;9.800;2023-03-01T15:20:16;3.22;;;3.03;;
12228;SDS011;6177;52.402;9.800;2023-03-01T15:23:12;2.33;;;2.33;;
12228;SDS011;6177;52.402;9.800;2023-03-01T15:26:21;3.25;;;2.50;;
12228;SDS011;6177;52.402;9.800;2023-03-01T15:29:20;3.03;;;2.67;;
12228;SDS011;6177;52.402;9.800;2023-03-01T15:32:31;2.88;;;2.78;;
12228;SDS011;6177;52.402;9.800;2023-03-01T15:38:35;2.42;;;2.33;;
12228;SDS011;6177;52.402;9.800;2023-03-01T15:41:31;3.03;;;2.92;;
12228;SDS011;6177;52.402;9.800;2023-03-01T15:44:25;2.85;;;2.75;;
12228;SDS011;6177;52.402;9.800;2023-03-01T15:47:22;2.83;;;2.72;;
12228;SDS011;6177;52.402;9.800;2023-03-01T15:50:26;2.70;;;2.60;;
12228;SDS011;6177;52.402;9.800;2023-03-01T15:53:19;2.97;;;2.88;;
12228;SDS011;6177;52.402;9.800;2023-03-01T15:56:10;2.40;;;2.30;;
12228;SDS011;6177;52.402;9.800;2023-03-01T15:59:02;2.60;;;2.50;;
12228;SDS011;6177;52.402;9.800;2023-03-01T16:01:53;3.00;;;2.90;;
12228;SDS011;6177;52.402;9.800;2023-03-01T16:04:44;3.03;;;2.83;;
12228;SDS011;6177;52.402;9.800;2023-03-01T16:07:35;2.60;;;2.40;;
12228;SDS011;6177;52.402;9.800;2023-03-01T16:10:30;3.15;;;2.95;;
12228;SDS011;6177;52.402;9.800;2023-03-01T16:13:21;3.00;;;2.78;;
12228;SDS011;6177;52.402;9.800;2023-03-01T16:16:13;2.75;;;2.55;;
12228;SDS011;6177;52.402;9.800;2023-03-01T16:19:06;2.40;;;2.20;;
12228;SDS011;6177;52.402;9.800;2023-03-01T16:21:57;2.38;;;2.28;;
12228;SDS011;6177;52.402;9.800;2023-03-01T16:24:48;2.78;;;2.63;;
12228;SDS011;6177;52.402;9.800;2023-03-01T16:27:41;2.80;;;2.60;;
12228;SDS011;6177;52.402;9.800;2023-03-01T16:30:32;3.20;;;3.00;;
12228;SDS011;6177;52.402;9.800;2023-03-01T16:33:24;2.90;;;2.50;;
12228;SDS011;6177;52.402;9.800;2023-03-01T16:36:15;2.55;;;2.45;;
12228;SDS011;6177;52.402;9.800;2023-03-01T16:39:08;2.80;;;2.60;;
12228;SDS011;6177;52.402;9.800;2023-03-01T16:42:00;2.70;;;2.47;;
12228;SDS011;6177;52.402;9.800;2023-03-01T16:44:55;2.60;;;2.40;;
12228;SDS011;6177;52.402;9.800;2023-03-01T16:47:46;3.23;;;2.90;;
12228;SDS011;6177;52.402;9.800;2023-03-01T16:50:37;2.83;;;2.63;;
12228;SDS011;6177;52.402;9.800;2023-03-01T16:53:28;2.83;;;2.47;;
12228;SDS011;6177;52.402;9.800;2023-03-01T16:56:19;2.90;;;2.80;;
12228;SDS011;6177;52.402;9.800;2023-03-01T16:59:09;3.67;;;3.13;;
12228;SDS011;6177;52.402;9.800;2023-03-01T17:02:00;3.57;;;3.30;;
12228;SDS011;6177;52.402;9.800;2023-03-01T17:04:52;3.87;;;3.50;;
12228;SDS011;6177;52.402;9.800;2023-03-01T17:07:43;10.57;;;9.57;;
12228;SDS011;6177;52.402;9.800;2023-03-01T17:10:34;7.60;;;6.90;;
12228;SDS011;6177;52.402;9.800;2023-03-01T17:13:25;4.33;;;4.03;;
12228;SDS011;6177;52.402;9.800;2023-03-01T17:16:17;4.03;;;3.73;;
12228;SDS011;6177;52.402;9.800;2023-03-01T17:19:08;4.60;;;4.20;;
12228;SDS011;6177;52.402;9.800;2023-03-01T17:21:59;6.27;;;5.77;;
12228;SDS011;6177;52.402;9.800;2023-03-01T17:24:50;6.83;;;6.33;;
12228;SDS011;6177;52.402;9.800;2023-03-01T17:27:40;7.37;;;6.67;;
12228;SDS011;6177;52.402;9.800;2023-03-01T17:30:31;8.47;;;7.77;;
12228;SDS011;6177;52.402;9.800;2023-03-01T17:33:22;10.80;;;9.87;;
12228;SDS011;6177;52.402;9.800;2023-03-01T17:36:13;7.90;;;7.10;;
12228;SDS011;6177;52.402;9.800;2023-03-01T17:39:03;7.73;;;6.97;;
12228;SDS011;6177;52.402;9.800;2023-03-01T17:41:54;9.00;;;8.07;;
12228;SDS011;6177;52.402;9.800;2023-03-01T17:44:46;6.93;;;6.33;;
12228;SDS011;6177;52.402;9.800;2023-03-01T17:47:37;8.80;;;8.07;;
12228;SDS011;6177;52.402;9.800;2023-03-01T17:50:28;8.00;;;5.83;;
12228;SDS011;6177;52.402;9.800;2023-03-01T17:53:18;6.37;;;5.87;;
12228;SDS011;6177;52.402;9.800;2023-03-01T17:56:09;6.90;;;6.20;;
12228;SDS011;6177;52.402;9.800;2023-03-01T17:59:00;6.33;;;5.73;;
12228;SDS011;6177;52.402;9.800;2023-03-01T18:01:51;6.17;;;5.67;;
12228;SDS011;6177;52.402;9.800;2023-03-01T18:04:42;5.77;;;5.30;;
12228;SDS011;6177;52.402;9.800;2023-03-01T18:07:32;5.20;;;4.80;;
12228;SDS011;6177;52.402;9.800;2023-03-01T18:10:23;6.47;;;5.87;;
12228;SDS011;6177;52.402;9.800;2023-03-01T18:13:14;7.13;;;5.40;;
12228;SDS011;6177;52.402;9.800;2023-03-01T18:16:10;6.00;;;5.50;;
12228;SDS011;6177;52.402;9.800;2023-03-01T18:19:02;6.63;;;6.10;;
12228;SDS011;6177;52.402;9.800;2023-03-01T18:21:53;8.00;;;7.20;;
12228;SDS011;6177;52.402;9.800;2023-03-01T18:24:44;9.10;;;7.67;;
12228;SDS011;6177;52.402;9.800;2023-03-01T18:27:35;9.27;;;6.80;;
12228;SDS011;6177;52.402;9.800;2023-03-01T18:30:26;7.60;;;5.87;;
12228;SDS011;6177;52.402;9.800;2023-03-01T18:33:17;5.50;;;5.10;;
12228;SDS011;6177;52.402;9.800;2023-03-01T18:36:15;6.30;;;5.80;;
12228;SDS011;6177;52.402;9.800;2023-03-01T18:39:08;6.60;;;5.30;;
12228;SDS011;6177;52.402;9.800;2023-03-01T18:41:59;6.13;;;5.63;;
12228;SDS011;6177;52.402;9.800;2023-03-01T18:44:50;6.27;;;5.47;;
12228;SDS011;6177;52.402;9.800;2023-03-01T18:47:41;5.50;;;5.07;;
12228;SDS011;6177;52.402;9.800;2023-03-01T18:50:32;7.07;;;5.07;;
12228;SDS011;6177;52.402;9.800;2023-03-01T18:53:23;5.93;;;4.40;;
12228;SDS011;6177;52.402;9.800;2023-03-01T18:56:14;6.37;;;5.00;;
12228;SDS011;6177;52.402;9.800;2023-03-01T18:59:05;4.67;;;4.20;;
12228;SDS011;6177;52.402;9.800;2023-03-01T19:01:56;4.20;;;3.70;;
12228;SDS011;6177;52.402;9.800;2023-03-01T19:04:48;4.10;;;3.67;;
12228;SDS011;6177;52.402;9.800;2023-03-01T19:07:40;3.97;;;3.67;;
12228;SDS011;6177;52.402;9.800;2023-03-01T19:10:31;3.30;;;3.10;;
12228;SDS011;6177;52.402;9.800;2023-03-01T19:13:22;2.80;;;2.70;;